Bellingham International Airport
KBLI : rendu visible

Aérodrome :











RETROUVEZ-NOUS SUR...

 
LOGIN :

S'inscrire | Disclaimer

   EN    FR    IT 

 









Légende :    VFR   VFR Marginal   IFR   IFR Intensif   IFR Très Intensif
Visi : 
Plafond : 
>= 8 km
>= 3000ft
5 à 8 km
1000 à 3000 ft
1500m à 5 km
500 à 1000 ft
800 à 1500m
200 à 500 ft
< 800m
< 200 ft
Symboles :   Orages  Brouillard  Fortes neiges  Fortes précipitations  Vent > 20 kt






- Altitude de l'aérodrome : 170 ft
- Code IATA : BLI


KBLI - Bellingham International

DERNIER METAR :
  • 170953Z AUTO 16016G23KT 10SM -RA BKN050 OVC090 13/08 A3004 RMK AO2 SLP178 P0003 T01280078

METARs EXPIRÉS :
  • 170853Z AUTO 17015G23KT 8SM -RA OVC050 13/08 A3008 RMK AO2 SLP193 P0007 60012 T01280078 56014
  • 170753Z AUTO 16013G23KT 7SM -RA FEW036 SCT045 OVC055 13/07 A3009 RMK AO2 SLP195 P0003 T01330072 401390094

TAF KBLI
Valide du 17 à 06h jusqu'au 18 à 06h UTC


170545Z 1706/1806 16015G22KT P6SM -RA OVC045
FM171200 16015G25KT 4SM -RA BR OVC015
FM172000 16010KT P6SM VCSH BKN020 BKN050



MET'MAP, la Météo Aéronautique d'un coup d'oeil ! - Copyright ORBIFLY Décembre 2007 - Disclaimer

ORBIFLY MET'MAP TEAM :

Programmation & Développement : Alexandra Zaïnal
Conception & Développement : Baudouin d'Aumeries
Co-Programmation & Développement : Marc-Olivier Méhu
Soutien technique & logistique : Manuel Goepfert

Contact : metmap@orbifly.com




SOURCES & CREDITS :

   NOAA       Earth
Advisory